This is the latest recevied weather packets stored in our database for station/object DR0T. If no packets are shown the sender has not sent any weather packets the latest 10 day(s).
| Time | Temp. | Humidity | Pressure | Rain* | Wind** | Luminosity | Snow |
|---|---|---|---|---|---|---|---|
| 1778250159 | 15° C | 65% | 1017.5 hPa | 0 mm | - | - | - |
| 1778249854 | 13.89° C | 63% | 1017.4 hPa | 0 mm | - | - | - |
| 1778249553 | 15° C | 61% | 1017.5 hPa | 0 mm | - | - | - |
| 1778249252 | 16.11° C | 58% | 1017.6 hPa | 0 mm | - | - | - |
| 1778248951 | 15.56° C | 59% | 1017.7 hPa | 0 mm | - | - | - |
| 1778248655 | 15.56° C | 60% | 1017.7 hPa | 0 mm | - | - | - |
| 1778248047 | 15.56° C | 61% | 1017.8 hPa | 0 mm | - | - | - |
| 1778247746 | 15.56° C | 63% | 1017.8 hPa | 0 mm | - | - | - |
| 1778247445 | 15.56° C | 62% | 1017.8 hPa | 0 mm | - | - | - |
| 1778247143 | 15° C | 64% | 1017.8 hPa | 0 mm | - | - | - |
| 1778246844 | 14.44° C | 66% | 1017.9 hPa | 0 mm | - | - | - |
| 1778246543 | 13.89° C | 68% | 1017.9 hPa | 0 mm | - | - | - |
| 1778246239 | 13.89° C | 69% | 1017.9 hPa | 0 mm | - | - | - |
| 1778245939 | 13.89° C | 69% | 1017.9 hPa | 0 mm | - | - | - |
| 1778245637 | 15° C | 67% | 1017.9 hPa | 0 mm | - | - | - |
| 1778245338 | 14.44° C | 69% | 1018 hPa | 0 mm | - | - | - |
| 1778245057 | 13.33° C | 73% | 1018.1 hPa | 0 mm | - | - | - |
| 1778244753 | 13.33° C | 73% | 1018 hPa | 0 mm | - | - | - |
| 1778244452 | 13.33° C | 72% | 1018.1 hPa | 0 mm | - | - | - |
| 1778244151 | 13.33° C | 72% | 1018.1 hPa | 0 mm | - | - | - |
| 1778243850 | 13.33° C | 71% | 1018.2 hPa | 0 mm | - | - | - |
| 1778243549 | 13.89° C | 74% | 1018.1 hPa | 0 mm | - | - | - |
| 1778243247 | 13.89° C | 72% | 1018.1 hPa | 0 mm | - | - | - |
| 1778242946 | 13.89° C | 71% | 1018.1 hPa | 0 mm | - | - | - |
| 1778242649 | 13.89° C | 73% | 1018.1 hPa | 0 mm | - | - | - |
* Rain latest hour (hover to see other rain measurements)
** Current wind speed in m/s (hover to see current wind gust speed)